Main page
METAR-TAF:

METAR-TAF

Airports :

Tunis–Carthage International Airport

Tunis, Tunisia

latitude: 36-50N, longitude: 010-14E, elevation: 3 m

Current weather observation

The report was made 54 minutes ago, at 00:00 UTC
Wind 11 kt from the South/Southeast
Temperature 15°C
Humidity 72%
Pressure 1019 hPa
Visibility 10 km or more
no clouds below 1500 m and no cumulonimbus

METAR: DTTA 110000Z 16011KT CAVOK 15/10 Q1019

Time: 01:54 (00:54 UTC)

Forecast

The report was made 1 hour and 54 minutes ago, at 23:00 UTC
Forecast valid from 11 at 00 UTC to 11 at 24 UTC
Wind 10 kt from the South
Visibility 10 km or more
no clouds below 1500 m and no cumulonimbus
Probability 40% :
Temporary
from 11 at 12 UTC to 11 at 18 UTC
Wind 16 kt from the Southeast with gusts up to 26 kt

TAF: DTTA 102300Z 1100/1124 17010KT CAVOK PROB40 TEMPO 1112/1118 14016G26KT

Weather observations and forecasts of more than 4000 airports (METAR and TAF reports).

The available stations are represented by yellow and red dots on the map.

Hover mouse over dot to see the name of the station.

Then click to see weather observations and forecasts.

To change the map : click on the green buttons with a black cross to zoom in, on the green button with a dash to zoom out, or on the green arrows for adjacent maps.


METAR-TAF: